Time;durP1;ratioP1;P1;durP2;ratioP2;P2;SDS_P1;SDS_P2;PMS_P1;PMS_P2;Temp;Humidity;BMP_temperature;BMP_pressure;BME280_temperature;BME280_humidity;BME280_pressure;Samples;Min_cycle;Max_cycle;Signal;HPM_P1;HPM_P2
2022/01/04 00:02:20;;;;;;;18.48;5.05;;;8.90;99.90;;;;;;5040237;28;20091;-66
2022/01/04 00:04:46;;;;;;;14.05;4.25;;;8.90;99.90;;;;;;5038763;28;20037;-62
2022/01/04 00:07:11;;;;;;;14.80;4.93;;;9.00;99.90;;;;;;5039129;28;20048;-62
2022/01/04 00:09:41;;;;;;;15.98;4.57;;;9.00;99.90;;;;;;5040185;28;20040;-62
2022/01/04 00:14:55;;;;;;;13.00;4.47;;;9.00;99.90;;;;;;5037365;28;20064;-62
2022/01/04 00:17:21;;;;;;;9.73;4.20;;;9.00;99.90;;;;;;5038811;28;20528;-61
2022/01/04 00:19:46;;;;;;;17.27;4.40;;;9.00;99.90;;;;;;5038315;28;20037;-62
2022/01/04 00:22:12;;;;;;;13.00;4.40;;;9.10;99.90;;;;;;5038968;28;20028;-62
2022/01/04 00:24:38;;;;;;;17.77;4.15;;;9.10;99.90;;;;;;5039493;28;20065;-62
2022/01/04 00:27:04;;;;;;;12.02;4.50;;;9.10;99.90;;;;;;5037498;28;20063;-62
2022/01/04 00:29:29;;;;;;;17.55;4.75;;;9.00;99.90;;;;;;5036898;28;20116;-62
2022/01/04 00:31:55;;;;;;;13.60;4.95;;;9.00;99.90;;;;;;5043840;28;20483;-61
2022/01/04 00:34:20;;;;;;;18.20;4.38;;;9.00;99.90;;;;;;5043801;28;20045;-61
2022/01/04 00:36:46;;;;;;;8.07;3.72;;;9.00;99.90;;;;;;5042179;28;20043;-62
2022/01/04 00:39:11;;;;;;;10.43;3.55;;;9.00;99.90;;;;;;5042895;28;20489;-62
2022/01/04 00:41:38;;;;;;;14.48;4.18;;;8.90;99.90;;;;;;5042392;28;20497;-62
2022/01/04 00:44:04;;;;;;;12.20;4.00;;;8.90;99.90;;;;;;5043783;28;20033;-62
2022/01/04 00:46:30;;;;;;;14.18;4.03;;;8.90;99.90;;;;;;5041402;28;20041;-62
2022/01/04 00:49:11;;;;;;;11.98;4.47;;;8.80;99.90;;;;;;5044601;28;20030;-61
2022/01/04 00:51:42;;;;;;;13.40;4.63;;;8.90;99.90;;;;;;5039468;28;20041;-62
2022/01/04 00:54:09;;;;;;;16.85;5.15;;;8.80;99.90;;;;;;5043190;28;20056;-61
2022/01/04 00:56:35;;;;;;;11.02;4.22;;;8.80;99.90;;;;;;5041793;28;20063;-62
2022/01/04 00:59:01;;;;;;;11.65;4.93;;;8.70;99.90;;;;;;5043778;28;20036;-61
2022/01/04 01:01:27;;;;;;;15.88;4.43;;;8.70;99.90;;;;;;5040847;28;20095;-62
2022/01/04 01:03:53;;;;;;;11.57;4.38;;;8.70;99.90;;;;;;5043784;28;20128;-62
2022/01/04 01:06:19;;;;;;;10.90;4.25;;;8.80;99.90;;;;;;5041767;28;20079;-63
2022/01/04 01:08:45;;;;;;;16.85;5.30;;;8.80;99.90;;;;;;5042668;28;20049;-64
2022/01/04 01:11:11;;;;;;;10.70;4.50;;;8.80;99.90;;;;;;5042388;28;20095;-61
2022/01/04 01:13:39;;;;;;;18.58;5.10;;;8.90;99.90;;;;;;5041751;28;20116;-61
2022/01/04 01:16:05;;;;;;;9.93;5.28;;;8.80;99.90;;;;;;5042905;28;20040;-61
2022/01/04 01:18:31;;;;;;;12.57;4.32;;;8.80;99.90;;;;;;5041277;28;20539;-61
2022/01/04 01:20:56;;;;;;;13.95;4.68;;;8.90;99.90;;;;;;5043499;28;20029;-61
2022/01/04 01:23:23;;;;;;;15.15;5.05;;;8.90;99.90;;;;;;5040711;28;20041;-61
2022/01/04 01:25:50;;;;;;;9.63;4.22;;;8.80;99.90;;;;;;5042912;28;20409;-61
2022/01/04 01:28:16;;;;;;;13.65;4.50;;;8.80;99.90;;;;;;5041487;28;20033;-62
2022/01/04 01:30:43;;;;;;;9.23;4.43;;;8.80;99.90;;;;;;5041561;28;20061;-63
2022/01/04 01:33:10;;;;;;;34.42;5.45;;;8.80;99.90;;;;;;5042467;28;20029;-62
2022/01/04 01:35:37;;;;;;;12.20;4.90;;;8.80;99.90;;;;;;5041460;28;20076;-62
2022/01/04 01:38:03;;;;;;;11.82;5.65;;;8.80;99.90;;;;;;5042544;28;20049;-62
2022/01/04 01:40:29;;;;;;;11.23;4.88;;;8.80;99.90;;;;;;5040277;28;20033;-61
2022/01/04 01:42:56;;;;;;;16.23;4.97;;;8.80;99.90;;;;;;5037939;28;20777;-61
2022/01/04 01:45:23;;;;;;;13.68;5.07;;;8.90;99.90;;;;;;5043454;28;20033;-62
2022/01/04 01:47:50;;;;;;;14.52;4.72;;;8.90;99.90;;;;;;5039268;28;20029;-62
2022/01/04 01:50:17;;;;;;;10.45;5.03;;;8.90;99.90;;;;;;5040737;28;20085;-62
2022/01/04 01:52:45;;;;;;;18.33;5.10;;;8.80;99.90;;;;;;5042106;28;20071;-62
2022/01/04 01:55:12;;;;;;;11.65;5.35;;;8.90;99.90;;;;;;5041393;28;20108;-61
2022/01/04 01:57:38;;;;;;;8.02;4.60;;;8.90;99.90;;;;;;5041583;28;20045;-62
2022/01/04 02:00:09;;;;;;;12.68;4.63;;;8.90;99.90;;;;;;5041688;28;20028;-61
2022/01/04 02:02:35;;;;;;;9.82;4.68;;;8.80;99.90;;;;;;5041231;28;20038;-61
2022/01/04 02:05:01;;;;;;;12.20;4.75;;;8.80;99.90;;;;;;5042282;28;20033;-62
2022/01/04 02:07:28;;;;;;;11.25;4.50;;;8.70;99.90;;;;;;5040147;28;20029;-62
2022/01/04 02:10:07;;;;;;;8.93;4.30;;;8.70;99.90;;;;;;5042228;28;20037;-62
2022/01/04 02:12:41;;;;;;;17.30;5.78;;;8.70;99.90;;;;;;5038447;28;20057;-61
2022/01/04 02:15:09;;;;;;;16.08;5.20;;;8.70;99.90;;;;;;5041196;28;20069;-61
2022/01/04 02:17:35;;;;;;;9.10;4.65;;;8.70;99.90;;;;;;5040884;28;20037;-61
2022/01/04 02:20:01;;;;;;;16.30;5.82;;;8.60;99.90;;;;;;5041632;28;20674;-62
2022/01/04 02:22:27;;;;;;;12.13;5.40;;;8.70;99.90;;;;;;5039770;28;20077;-62
2022/01/04 02:24:54;;;;;;;14.05;5.07;;;8.70;99.90;;;;;;5040669;28;20035;-62
2022/01/04 02:27:20;;;;;;;10.38;5.00;;;8.60;99.90;;;;;;5035456;28;20358;-62
2022/01/04 02:29:47;;;;;;;11.80;5.63;;;8.60;99.90;;;;;;5042033;28;20025;-62
2022/01/04 02:32:13;;;;;;;13.65;5.82;;;8.60;99.90;;;;;;5040017;28;20158;-62
2022/01/04 02:34:40;;;;;;;12.45;5.53;;;8.60;99.90;;;;;;5041829;28;20038;-61
2022/01/04 02:37:08;;;;;;;10.48;5.25;;;8.60;99.90;;;;;;5042262;28;20033;-62
2022/01/04 02:39:36;;;;;;;10.60;5.20;;;8.60;99.90;;;;;;5041106;28;20040;-61
2022/01/04 02:42:03;;;;;;;9.73;4.82;;;8.60;99.90;;;;;;5041126;28;20129;-62
2022/01/04 02:44:29;;;;;;;10.30;5.05;;;8.60;99.90;;;;;;5040117;28;20466;-61
2022/01/04 02:46:54;;;;;;;14.55;5.85;;;8.70;99.90;;;;;;5041777;28;20508;-61
2022/01/04 02:49:20;;;;;;;13.20;5.68;;;8.60;99.90;;;;;;5038891;28;20056;-61
2022/01/04 02:51:45;;;;;;;9.10;5.50;;;8.60;99.90;;;;;;5038676;28;20095;-63
2022/01/04 02:54:11;;;;;;;11.85;5.40;;;8.60;99.90;;;;;;5041074;28;20044;-62
2022/01/04 02:56:36;;;;;;;11.18;5.60;;;8.60;99.90;;;;;;5040427;28;20739;-62
2022/01/04 02:59:04;;;;;;;12.00;6.00;;;8.60;99.90;;;;;;5039964;28;20061;-61
2022/01/04 03:01:30;;;;;;;14.02;5.25;;;8.60;99.90;;;;;;5041266;28;20036;-62
2022/01/04 03:03:56;;;;;;;11.85;5.43;;;8.60;99.90;;;;;;5039090;28;20053;-62
2022/01/04 03:06:22;;;;;;;12.27;6.40;;;8.70;99.90;;;;;;5042548;28;20451;-62
2022/01/04 03:08:48;;;;;;;12.77;6.45;;;8.60;99.90;;;;;;5038139;28;20038;-62
2022/01/04 03:11:13;;;;;;;19.00;5.97;;;8.70;99.90;;;;;;5041644;28;20530;-63
2022/01/04 03:13:39;;;;;;;16.95;5.88;;;8.60;99.90;;;;;;5039865;28;20094;-62
2022/01/04 03:16:05;;;;;;;16.42;5.72;;;8.70;99.90;;;;;;5042225;28;20484;-62
2022/01/04 03:18:30;;;;;;;15.00;5.97;;;8.70;99.90;;;;;;5040054;28;20037;-61
2022/01/04 03:20:56;;;;;;;9.63;5.50;;;8.70;99.90;;;;;;5041467;28;20663;-62
2022/01/04 03:23:21;;;;;;;15.70;5.57;;;8.70;99.90;;;;;;5041513;28;20056;-62
2022/01/04 03:25:47;;;;;;;14.25;5.88;;;8.70;99.90;;;;;;5037235;28;20041;-62
2022/01/04 03:28:13;;;;;;;11.38;5.95;;;8.70;99.90;;;;;;5041500;28;20029;-62
2022/01/04 03:30:39;;;;;;;13.80;6.50;;;8.70;99.90;;;;;;5034662;28;20044;-61
2022/01/04 03:33:05;;;;;;;15.73;5.85;;;8.70;99.90;;;;;;5033670;28;20037;-62
2022/01/04 03:35:30;;;;;;;11.70;5.53;;;8.60;99.90;;;;;;5035529;28;20029;-62
2022/01/04 03:37:56;;;;;;;10.95;5.60;;;8.70;99.90;;;;;;5032121;28;20539;-62
2022/01/04 03:40:22;;;;;;;17.85;6.95;;;8.70;99.90;;;;;;5041186;28;20037;-61
2022/01/04 03:42:47;;;;;;;13.48;5.75;;;8.70;99.90;;;;;;5040369;28;20032;-62
2022/01/04 03:45:13;;;;;;;15.50;6.53;;;8.70;99.90;;;;;;5038346;28;20140;-62
2022/01/04 03:47:38;;;;;;;12.77;6.50;;;8.70;99.90;;;;;;5040535;28;20040;-61
2022/01/04 03:50:04;;;;;;;13.68;6.22;;;8.70;99.90;;;;;;5036502;28;20029;-62
2022/01/04 03:52:30;;;;;;;17.85;5.63;;;8.70;99.90;;;;;;5030742;28;20433;-62
2022/01/04 03:54:56;;;;;;;12.88;5.63;;;8.60;99.90;;;;;;5038677;28;20374;-61
2022/01/04 03:57:22;;;;;;;15.02;5.63;;;8.70;99.90;;;;;;5040788;28;20086;-61
2022/01/04 03:59:47;;;;;;;13.07;5.45;;;8.70;99.90;;;;;;5037203;28;20029;-61
2022/01/04 04:02:13;;;;;;;13.98;5.50;;;8.70;99.90;;;;;;5040991;28;20091;-62
2022/01/04 04:04:39;;;;;;;15.90;6.10;;;8.70;99.90;;;;;;5038463;28;20033;-62
2022/01/04 04:07:05;;;;;;;13.88;5.72;;;8.60;99.90;;;;;;5038814;28;20481;-62
2022/01/04 04:09:34;;;;;;;12.15;5.95;;;8.70;99.90;;;;;;5039615;28;20029;-62
2022/01/04 04:12:00;;;;;;;10.15;5.40;;;8.70;99.90;;;;;;5035525;28;25122;-61
2022/01/04 04:14:27;;;;;;;12.70;5.60;;;8.70;99.90;;;;;;5038735;28;20049;-62
2022/01/04 04:16:53;;;;;;;12.50;5.00;;;8.70;99.90;;;;;;5039685;28;20400;-62
2022/01/04 04:19:18;;;;;;;17.42;5.45;;;8.70;99.90;;;;;;5037570;28;20032;-61
2022/01/04 04:21:44;;;;;;;13.65;5.35;;;8.70;99.90;;;;;;5040530;28;20534;-62
2022/01/04 04:24:09;;;;;;;12.27;6.18;;;8.60;99.90;;;;;;5037841;28;20113;-62
2022/01/04 04:26:35;;;;;;;12.73;5.53;;;8.70;99.90;;;;;;5039731;28;20049;-61
2022/01/04 04:29:01;;;;;;;10.85;5.60;;;8.70;99.90;;;;;;5038616;28;20041;-62
2022/01/04 04:31:26;;;;;;;16.15;5.97;;;8.70;99.90;;;;;;5038564;28;20164;-62
2022/01/04 04:33:52;;;;;;;20.20;7.10;;;8.60;99.90;;;;;;5039726;28;20041;-62
2022/01/04 04:36:17;;;;;;;15.70;6.72;;;8.60;99.90;;;;;;5037546;28;20045;-61
2022/01/04 04:38:43;;;;;;;12.20;6.22;;;8.60;99.90;;;;;;5040458;28;20040;-62
2022/01/04 04:41:08;;;;;;;20.65;6.13;;;8.60;99.90;;;;;;5037346;28;20494;-62
2022/01/04 04:43:34;;;;;;;15.77;5.45;;;8.50;99.90;;;;;;5037355;28;20029;-61
2022/01/04 04:46:00;;;;;;;12.15;5.78;;;8.50;99.90;;;;;;5038870;28;20033;-62
2022/01/04 04:48:25;;;;;;;20.70;5.60;;;8.50;99.90;;;;;;5039409;28;20106;-62
2022/01/04 04:50:51;;;;;;;10.25;5.13;;;8.50;99.90;;;;;;5037312;28;20080;-62
2022/01/04 04:53:16;;;;;;;15.57;5.80;;;8.50;99.90;;;;;;5040909;28;20025;-63
2022/01/04 04:55:42;;;;;;;13.40;6.10;;;8.50;99.90;;;;;;5035496;28;20030;-61
2022/01/04 04:58:07;;;;;;;15.20;5.88;;;8.50;99.90;;;;;;5039706;28;20110;-62
2022/01/04 05:00:33;;;;;;;12.45;5.53;;;8.50;99.90;;;;;;5042741;28;20032;-61
2022/01/04 05:02:59;;;;;;;13.15;5.78;;;8.40;99.90;;;;;;5046254;28;20547;-63
2022/01/04 05:05:24;;;;;;;12.48;6.22;;;8.40;99.90;;;;;;5041313;28;20546;-63
2022/01/04 05:07:50;;;;;;;17.30;5.93;;;8.40;99.90;;;;;;5042223;28;20033;-62
2022/01/04 05:10:15;;;;;;;11.48;5.35;;;8.40;99.90;;;;;;5041167;28;20053;-62
2022/01/04 05:12:41;;;;;;;15.35;5.07;;;8.40;99.90;;;;;;5036726;28;20053;-63
2022/01/04 05:15:07;;;;;;;15.57;5.68;;;8.40;99.90;;;;;;5039971;28;20033;-61
2022/01/04 05:17:33;;;;;;;9.95;5.18;;;8.40;99.90;;;;;;5040096;28;20060;-62
2022/01/04 05:19:59;;;;;;;15.30;7.03;;;8.40;99.90;;;;;;5040608;28;20494;-62
2022/01/04 05:22:24;;;;;;;15.85;6.53;;;8.40;99.90;;;;;;5042920;28;20040;-63
2022/01/04 05:24:50;;;;;;;16.63;6.72;;;8.40;99.90;;;;;;5040699;28;20033;-62
2022/01/04 05:27:15;;;;;;;10.95;5.65;;;8.40;99.90;;;;;;5043563;28;20029;-63
2022/01/04 05:29:41;;;;;;;13.32;6.38;;;8.40;99.90;;;;;;5040086;28;20568;-62
2022/01/04 05:32:07;;;;;;;12.98;5.93;;;8.40;99.90;;;;;;5036768;28;20045;-62
2022/01/04 05:34:33;;;;;;;15.07;7.13;;;8.40;99.90;;;;;;5031536;28;20033;-62
2022/01/04 05:36:58;;;;;;;11.18;5.55;;;8.40;99.90;;;;;;5034018;28;20045;-62
2022/01/04 05:39:24;;;;;;;15.88;6.63;;;8.50;99.90;;;;;;5033394;28;20033;-61
2022/01/04 05:41:50;;;;;;;16.60;6.13;;;8.50;99.90;;;;;;5026288;28;20057;-62
2022/01/04 05:44:15;;;;;;;15.27;6.40;;;8.50;99.90;;;;;;5029693;28;20037;-63
2022/01/04 05:46:41;;;;;;;16.75;7.00;;;8.50;99.90;;;;;;5032817;28;20120;-64
2022/01/04 05:49:07;;;;;;;10.85;6.05;;;8.50;99.90;;;;;;5031612;28;20091;-62
2022/01/04 05:51:32;;;;;;;16.92;6.43;;;8.60;99.90;;;;;;5038357;28;20396;-62
2022/01/04 05:53:58;;;;;;;14.93;5.70;;;8.50;99.90;;;;;;5033931;28;20302;-62
2022/01/04 05:56:24;;;;;;;17.48;6.53;;;8.50;99.90;;;;;;5039446;28;20044;-62
2022/01/04 05:58:49;;;;;;;13.82;6.50;;;8.50;99.90;;;;;;5033327;28;20044;-63
2022/01/04 06:01:15;;;;;;;12.77;5.97;;;8.50;99.90;;;;;;5028505;28;20781;-61
2022/01/04 06:03:40;;;;;;;11.13;5.43;;;8.50;99.90;;;;;;5028905;28;20592;-67
2022/01/04 06:06:06;;;;;;;12.25;5.63;;;8.50;99.90;;;;;;5033748;28;20106;-62
2022/01/04 06:08:35;;;;;;;10.70;5.25;;;8.50;99.90;;;;;;5030782;28;20061;-61
2022/01/04 06:11:02;;;;;;;13.60;6.18;;;8.60;99.90;;;;;;5026546;28;20041;-61
2022/01/04 06:16:12;;;;;;;13.75;6.47;;;8.50;99.90;;;;;;5034960;28;20048;-61
2022/01/04 06:18:41;;;;;;;12.93;5.93;;;8.50;99.90;;;;;;5031567;28;20112;-62
2022/01/04 06:21:07;;;;;;;12.40;5.82;;;8.50;99.90;;;;;;5029203;28;20393;-62
2022/01/04 06:23:32;;;;;;;10.68;6.00;;;8.50;99.90;;;;;;5027806;28;20631;-61
2022/01/04 06:25:58;;;;;;;13.35;6.13;;;8.50;99.90;;;;;;5030146;28;20049;-61
2022/01/04 06:28:24;;;;;;;19.08;5.97;;;8.40;99.90;;;;;;5028433;28;20035;-62
2022/01/04 06:30:50;;;;;;;11.45;5.30;;;8.40;99.90;;;;;;5027260;28;20045;-62
2022/01/04 06:33:20;;;;;;;14.30;5.28;;;8.40;99.90;;;;;;5031423;28;20101;-63
2022/01/04 06:35:47;;;;;;;12.60;5.57;;;8.40;99.90;;;;;;5026916;28;20041;-63
2022/01/04 06:38:13;;;;;;;12.68;6.28;;;8.40;99.90;;;;;;5027746;28;20060;-62
2022/01/04 06:40:38;;;;;;;12.48;5.35;;;8.40;99.90;;;;;;5028609;28;20448;-62
2022/01/04 06:43:04;;;;;;;10.70;5.22;;;8.40;99.90;;;;;;5027759;28;20041;-62
2022/01/04 06:45:30;;;;;;;9.65;4.80;;;8.40;99.90;;;;;;5031199;28;20400;-62
2022/01/04 06:47:55;;;;;;;12.52;6.13;;;8.50;99.90;;;;;;5027034;28;20087;-62
2022/01/04 06:50:21;;;;;;;13.15;5.70;;;8.40;99.90;;;;;;5027993;28;20033;-61
2022/01/04 06:52:47;;;;;;;13.00;5.40;;;8.40;99.90;;;;;;5027340;28;20049;-60
2022/01/04 06:55:14;;;;;;;13.45;6.07;;;8.50;99.90;;;;;;5032177;28;20124;-62
2022/01/04 06:57:40;;;;;;;17.52;5.88;;;8.40;99.90;;;;;;5030017;28;20068;-62
2022/01/04 07:00:06;;;;;;;10.95;5.20;;;8.50;99.90;;;;;;5026892;28;20053;-62
2022/01/04 07:02:32;;;;;;;11.00;5.38;;;8.50;99.90;;;;;;5029957;28;20557;-61
2022/01/04 07:04:57;;;;;;;11.60;5.57;;;8.40;99.90;;;;;;5029496;28;20117;-61
2022/01/04 07:07:24;;;;;;;10.70;5.90;;;8.50;99.90;;;;;;5026782;28;20444;-62
2022/01/04 07:09:49;;;;;;;11.63;6.15;;;8.40;99.90;;;;;;5024840;28;20129;-61
2022/01/04 07:12:15;;;;;;;14.55;5.93;;;8.40;99.90;;;;;;5029924;28;20120;-62
2022/01/04 07:14:41;;;;;;;14.10;5.90;;;8.50;99.90;;;;;;5029941;28;20037;-65
2022/01/04 07:17:06;;;;;;;13.10;5.90;;;8.50;99.90;;;;;;5026836;28;20045;-61
2022/01/04 07:19:32;;;;;;;11.95;5.57;;;8.40;99.90;;;;;;5028672;28;20063;-61
2022/01/04 07:21:58;;;;;;;14.23;6.00;;;8.40;99.90;;;;;;5027429;28;20042;-62
2022/01/04 07:24:23;;;;;;;16.10;6.03;;;8.40;99.90;;;;;;5029478;28;20040;-62
2022/01/04 07:26:49;;;;;;;15.82;5.72;;;8.40;99.90;;;;;;5030016;28;20052;-61
2022/01/04 07:29:14;;;;;;;11.68;5.13;;;8.40;99.90;;;;;;5026850;28;20133;-63
2022/01/04 07:31:40;;;;;;;12.40;5.55;;;8.40;99.90;;;;;;5027485;28;20064;-62
2022/01/04 07:34:05;;;;;;;22.23;6.40;;;8.40;99.90;;;;;;5030166;28;20037;-62
2022/01/04 07:36:32;;;;;;;13.48;5.93;;;8.40;99.90;;;;;;5024840;28;20038;-62
2022/01/04 07:38:58;;;;;;;14.77;6.60;;;8.40;99.90;;;;;;5028826;28;20041;-61
2022/01/04 07:41:23;;;;;;;14.38;5.43;;;8.40;99.90;;;;;;5027027;28;20040;-62
2022/01/04 07:43:49;;;;;;;11.68;5.35;;;8.40;99.90;;;;;;5027139;28;20030;-63
2022/01/04 07:46:15;;;;;;;14.75;6.07;;;8.40;99.90;;;;;;5025833;28;20099;-62
2022/01/04 07:48:41;;;;;;;14.65;5.85;;;8.30;99.90;;;;;;5028695;28;20468;-62
2022/01/04 07:51:06;;;;;;;16.40;6.43;;;8.40;99.90;;;;;;5025573;28;20034;-63
2022/01/04 07:53:32;;;;;;;10.73;5.97;;;8.40;99.90;;;;;;5028116;28;20057;-61
2022/01/04 07:55:58;;;;;;;13.10;6.38;;;8.40;99.90;;;;;;5023351;28;20436;-61
2022/01/04 07:58:25;;;;;;;17.17;6.82;;;8.40;99.90;;;;;;5029381;28;20026;-61
2022/01/04 08:00:51;;;;;;;14.65;5.97;;;8.40;99.90;;;;;;5025677;28;20245;-62
2022/01/04 08:03:17;;;;;;;14.90;6.65;;;8.40;99.90;;;;;;5030163;28;20040;-63
2022/01/04 08:05:43;;;;;;;14.45;6.15;;;8.40;99.90;;;;;;5031321;28;20039;-62
2022/01/04 08:08:09;;;;;;;14.38;6.00;;;8.40;99.90;;;;;;5025720;28;20022;-61
2022/01/04 08:10:35;;;;;;;17.13;7.15;;;8.40;99.90;;;;;;5026895;28;20413;-61
2022/01/04 08:13:00;;;;;;;14.75;5.97;;;8.40;99.90;;;;;;5031353;28;20048;-63
2022/01/04 08:15:27;;;;;;;14.18;6.70;;;8.50;99.90;;;;;;5025126;28;20433;-61
2022/01/04 08:17:53;;;;;;;15.35;6.18;;;8.40;99.90;;;;;;5026021;28;20041;-63
2022/01/04 08:20:19;;;;;;;15.10;7.05;;;8.50;99.90;;;;;;5025593;28;20115;-61
2022/01/04 08:22:44;;;;;;;14.93;6.43;;;8.50;99.90;;;;;;5027451;28;20038;-63
2022/01/04 08:25:11;;;;;;;14.35;5.60;;;8.50;99.90;;;;;;5024127;28;20405;-62
2022/01/04 08:27:38;;;;;;;15.70;7.32;;;8.50;99.90;;;;;;5027747;28;20513;-61
2022/01/04 08:30:06;;;;;;;16.70;6.80;;;8.50;99.90;;;;;;5027591;28;20389;-61
2022/01/04 08:32:32;;;;;;;15.38;6.13;;;8.50;99.90;;;;;;5027490;28;20485;-62
2022/01/04 08:34:57;;;;;;;15.65;6.47;;;8.50;99.90;;;;;;5030328;28;20511;-62
2022/01/04 08:37:23;;;;;;;14.95;6.30;;;8.50;99.90;;;;;;5026697;28;20045;-62
2022/01/04 08:39:48;;;;;;;16.13;6.65;;;8.50;99.90;;;;;;5026499;28;20083;-62
2022/01/04 08:42:15;;;;;;;14.73;6.72;;;8.50;99.90;;;;;;5025080;28;20397;-62
2022/01/04 08:44:40;;;;;;;15.07;6.53;;;8.50;99.90;;;;;;5025907;28;20493;-62
2022/01/04 08:47:07;;;;;;;12.38;6.28;;;8.60;99.90;;;;;;5028858;28;20029;-63
2022/01/04 08:49:34;;;;;;;14.05;6.45;;;8.50;99.90;;;;;;5029766;28;20033;-62
2022/01/04 08:52:00;;;;;;;11.65;6.15;;;8.50;99.90;;;;;;5027722;28;20029;-63
2022/01/04 08:54:25;;;;;;;15.10;6.45;;;8.60;99.90;;;;;;5029637;28;20026;-63
2022/01/04 08:56:51;;;;;;;17.48;7.63;;;8.50;99.90;;;;;;5031394;28;20554;-62
2022/01/04 08:59:17;;;;;;;12.55;6.65;;;8.60;99.90;;;;;;5032845;28;20034;-62
2022/01/04 09:01:43;;;;;;;18.42;6.55;;;8.70;99.90;;;;;;5031215;28;20401;-62
2022/01/04 09:04:08;;;;;;;14.15;7.35;;;8.60;99.90;;;;;;5030677;28;20041;-63
2022/01/04 09:06:34;;;;;;;17.08;6.80;;;8.70;99.90;;;;;;5029587;28;20505;-63
2022/01/04 09:09:00;;;;;;;16.45;6.55;;;8.70;99.90;;;;;;5031702;28;20026;-63
2022/01/04 09:11:26;;;;;;;17.55;5.55;;;8.60;99.90;;;;;;5027762;28;20526;-63
2022/01/04 09:14:11;;;;;;;14.45;6.35;;;8.70;99.90;;;;;;5034985;28;20040;-63
2022/01/04 09:19:23;;;;;;;10.32;4.93;;;8.70;99.90;;;;;;5032440;28;20056;-62
2022/01/04 09:21:49;;;;;;;13.50;4.53;;;8.70;99.90;;;;;;5030123;28;20064;-62
2022/01/04 09:24:14;;;;;;;10.45;4.40;;;8.70;99.90;;;;;;5032034;28;20314;-62
2022/01/04 09:26:40;;;;;;;11.05;4.85;;;8.70;99.90;;;;;;5030051;28;20041;-61
2022/01/04 09:29:06;;;;;;;7.95;3.47;;;8.60;99.90;;;;;;5032417;28;20116;-62
2022/01/04 09:31:33;;;;;;;9.18;3.60;;;8.60;99.90;;;;;;5030248;28;20572;-62
2022/01/04 09:34:00;;;;;;;11.23;3.72;;;8.60;99.90;;;;;;5033741;28;20032;-62
2022/01/04 09:36:33;;;;;;;7.63;4.00;;;8.70;99.90;;;;;;5034882;28;20029;-62
2022/01/04 09:38:59;;;;;;;9.60;4.50;;;8.60;99.90;;;;;;5032861;28;20143;-62
2022/01/04 09:41:25;;;;;;;11.35;4.40;;;8.60;99.90;;;;;;5028675;28;20029;-62
2022/01/04 09:43:52;;;;;;;8.30;3.55;;;8.60;99.90;;;;;;5032523;28;20034;-62
2022/01/04 09:46:18;;;;;;;9.45;4.10;;;8.60;99.90;;;;;;5033543;28;20044;-62
2022/01/04 09:48:43;;;;;;;9.18;4.25;;;8.60;99.90;;;;;;5035802;28;20075;-62
2022/01/04 09:51:11;;;;;;;6.63;3.85;;;8.70;99.90;;;;;;5028961;28;20045;-62
2022/01/04 09:53:37;;;;;;;11.00;4.65;;;8.70;99.90;;;;;;5033719;28;20030;-61
2022/01/04 09:56:03;;;;;;;8.70;4.40;;;8.70;99.90;;;;;;5035708;28;20116;-63
2022/01/04 09:58:28;;;;;;;13.82;4.90;;;8.80;99.90;;;;;;5029199;28;20041;-62
2022/01/04 10:00:54;;;;;;;11.18;4.63;;;8.80;99.90;;;;;;5030659;28;21343;-62
2022/01/04 10:03:29;;;;;;;10.35;5.15;;;8.90;99.90;;;;;;5031037;28;20109;-64
2022/01/04 10:06:14;;;;;;;10.05;4.72;;;8.90;99.90;;;;;;5028887;28;20026;-61
2022/01/04 10:08:52;;;;;;;11.85;4.80;;;8.90;99.90;;;;;;5031553;28;20091;-62
2022/01/04 10:11:31;;;;;;;12.15;4.90;;;8.90;99.90;;;;;;5031618;28;20092;-63
2022/01/04 10:14:02;;;;;;;13.65;5.10;;;8.90;99.90;;;;;;5034920;28;20037;-65
2022/01/04 10:16:28;;;;;;;12.18;5.60;;;9.00;99.90;;;;;;5030794;28;20378;-63
2022/01/04 10:18:54;;;;;;;13.73;4.57;;;9.00;99.90;;;;;;5030523;28;20057;-65
2022/01/04 10:21:20;;;;;;;8.45;4.53;;;9.00;99.90;;;;;;5037251;28;20106;-67
2022/01/04 10:23:55;;;;;;;7.50;4.18;;;9.00;99.90;;;;;;5036029;28;20037;-62
2022/01/04 10:26:30;;;;;;;12.00;4.32;;;9.00;99.90;;;;;;5030267;28;20059;-62
2022/01/04 10:28:55;;;;;;;13.63;4.95;;;8.90;99.90;;;;;;5034147;28;20056;-62
2022/01/04 10:31:21;;;;;;;11.98;4.28;;;8.90;99.90;;;;;;5034903;28;20497;-62
2022/01/04 10:33:56;;;;;;;22.02;5.30;;;8.90;99.90;;;;;;5028304;28;20032;-65
2022/01/04 10:36:23;;;;;;;7.97;3.35;;;9.00;99.90;;;;;;5029104;28;20030;-62
2022/01/04 10:38:50;;;;;;;8.05;3.10;;;9.00;99.90;;;;;;5029232;28;20039;-63
2022/01/04 10:41:16;;;;;;;10.75;3.10;;;9.10;99.90;;;;;;5030869;28;20037;-64
2022/01/04 10:43:48;;;;;;;10.43;3.75;;;9.10;99.90;;;;;;5030121;28;20116;-62
2022/01/04 10:46:38;;;;;;;15.25;3.72;;;9.10;99.90;;;;;;5032274;28;20114;-63
2022/01/04 10:49:19;;;;;;;12.30;2.97;;;9.10;99.90;;;;;;5027694;28;20029;-61
2022/01/04 10:52:02;;;;;;;9.13;3.00;;;9.20;99.90;;;;;;5032578;28;20037;-63
2022/01/04 10:54:28;;;;;;;10.23;2.72;;;9.20;99.90;;;;;;5034351;28;20508;-61
2022/01/04 10:57:04;;;;;;;11.23;2.63;;;9.30;99.90;;;;;;5029585;28;20029;-61
2022/01/04 10:59:29;;;;;;;12.07;2.33;;;9.30;99.90;;;;;;5028591;28;20036;-63
2022/01/04 11:01:55;;;;;;;8.23;2.65;;;9.30;99.90;;;;;;5031461;28;20033;-61
2022/01/04 11:04:21;;;;;;;6.82;2.33;;;9.30;99.90;;;;;;5029095;28;20120;-62
2022/01/04 11:06:48;;;;;;;6.85;1.90;;;9.30;99.90;;;;;;5031452;28;20788;-61
2022/01/04 11:09:16;;;;;;;14.98;2.35;;;9.30;99.90;;;;;;5026929;28;20041;-62
2022/01/04 11:11:42;;;;;;;12.65;3.08;;;9.20;99.90;;;;;;5029488;28;20041;-61
2022/01/04 11:14:09;;;;;;;10.20;1.83;;;9.30;99.90;;;;;;5030332;28;20036;-61
2022/01/04 11:16:35;;;;;;;12.80;2.30;;;9.20;99.90;;;;;;5026867;28;20034;-61
2022/01/04 11:19:02;;;;;;;6.38;1.00;;;9.20;99.90;;;;;;5029785;28;20033;-61
2022/01/04 11:21:41;;;;;;;11.80;2.00;;;9.20;99.90;;;;;;5031684;28;20033;-61
2022/01/04 11:24:12;;;;;;;11.10;1.27;;;9.30;99.90;;;;;;5030286;28;20064;-61
2022/01/04 11:26:46;;;;;;;8.80;1.33;;;9.20;99.90;;;;;;5030543;28;20489;-62
2022/01/04 11:29:12;;;;;;;2.60;0.80;;;9.20;99.90;;;;;;5029191;28;20052;-62
2022/01/04 11:31:47;;;;;;;2.55;0.40;;;9.10;99.90;;;;;;5028383;28;20098;-62
2022/01/04 11:34:24;;;;;;;3.08;0.40;;;9.10;99.90;;;;;;5027708;28;20037;-61
2022/01/04 11:36:51;;;;;;;5.57;1.05;;;9.00;99.90;;;;;;5032918;28;20628;-61
2022/01/04 11:39:32;;;;;;;3.03;0.60;;;9.00;99.90;;;;;;5027471;28;20091;-61
2022/01/04 11:41:58;;;;;;;;;;;9.00;99.90;;;;;;5023093;28;20129;-61
2022/01/04 11:44:29;;;;;;;12.60;0.60;;;8.90;99.90;;;;;;5027544;28;19917;-62
2022/01/04 11:47:02;;;;;;;9.75;1.08;;;8.90;99.90;;;;;;5025415;28;20064;-61
2022/01/04 11:49:28;;;;;;;1.63;0.75;;;8.90;99.90;;;;;;5027956;28;20040;-61
2022/01/04 11:51:53;;;;;;;2.95;0.80;;;8.90;99.90;;;;;;5024682;28;20030;-61
2022/01/04 11:54:22;;;;;;;4.32;0.95;;;8.90;99.90;;;;;;5024546;28;20052;-62
2022/01/04 11:56:50;;;;;;;5.43;0.80;;;8.90;99.90;;;;;;5023333;28;20039;-61
2022/01/04 11:59:19;;;;;;;3.50;1.02;;;8.90;99.90;;;;;;5026288;28;20037;-61
2022/01/04 12:01:45;;;;;;;2.28;0.40;;;8.80;99.90;;;;;;5023445;28;20043;-62
2022/01/04 12:04:11;;;;;;;4.10;0.40;;;8.80;99.90;;;;;;5025289;28;20041;-61
2022/01/04 12:06:42;;;;;;;6.88;1.10;;;8.80;99.90;;;;;;5027619;28;20041;-62
2022/01/04 12:09:29;;;;;;;1.30;0.40;;;8.70;99.90;;;;;;5024219;28;20056;-62
2022/01/04 12:11:55;;;;;;;1.23;0.22;;;8.70;99.90;;;;;;5024832;28;20111;-62
2022/01/04 12:14:23;;;;;;;8.45;0.65;;;8.60;99.90;;;;;;5027897;28;20029;-62
2022/01/04 12:17:07;;;;;;;3.60;1.13;;;8.60;99.90;;;;;;5025262;28;20091;-61
2022/01/04 12:19:50;;;;;;;1.65;0.40;;;8.50;99.90;;;;;;5027984;28;20033;-64
2022/01/04 12:22:30;;;;;;;3.85;0.40;;;8.50;99.90;;;;;;5025677;28;20497;-62
2022/01/04 12:25:05;;;;;;;2.53;0.40;;;8.40;99.90;;;;;;5027959;28;20396;-62
2022/01/04 12:27:31;;;;;;;1.42;0.85;;;8.40;99.90;;;;;;5028360;28;20034;-62
2022/01/04 12:30:25;;;;;;;5.50;1.25;;;8.30;99.90;;;;;;5024538;28;20029;-61
2022/01/04 12:32:52;;;;;;;6.50;0.70;;;8.30;99.90;;;;;;5024053;28;20646;-62
2022/01/04 12:35:18;;;;;;;2.13;0.60;;;8.30;99.90;;;;;;5025461;28;20034;-63
2022/01/04 12:37:43;;;;;;;2.25;0.80;;;8.30;99.90;;;;;;5026973;28;20037;-61
2022/01/04 12:40:10;;;;;;;4.03;0.45;;;8.30;99.90;;;;;;5027843;28;20172;-62
2022/01/04 12:42:40;;;;;;;4.03;0.90;;;8.40;99.90;;;;;;5027117;28;20102;-62
2022/01/04 12:45:06;;;;;;;4.35;0.50;;;8.30;99.90;;;;;;5026308;28;20071;-61
2022/01/04 12:47:32;;;;;;;1.95;0.45;;;8.30;99.90;;;;;;5022391;28;20787;-61
2022/01/04 12:49:59;;;;;;;1.92;0.60;;;8.30;99.90;;;;;;5025695;28;20033;-62
2022/01/04 12:52:25;;;;;;;7.97;0.98;;;8.30;99.90;;;;;;5028641;28;20048;-63
2022/01/04 12:54:50;;;;;;;2.72;0.77;;;8.30;99.90;;;;;;5029999;28;20046;-62
2022/01/04 12:57:20;;;;;;;7.15;1.05;;;8.30;99.90;;;;;;5027842;28;20095;-62
2022/01/04 12:59:49;;;;;;;1.85;0.55;;;8.30;99.90;;;;;;5027810;28;20157;-62